createdAt,value
2017-11-24T00:00:42.245Z,2.67
2017-11-24T00:03:14.161Z,2.53
2017-11-24T00:05:46.046Z,3.17
2017-11-24T00:08:17.953Z,2.90
2017-11-24T00:10:49.816Z,2.30
2017-11-24T00:13:22.494Z,3.17
2017-11-24T00:15:54.361Z,2.67
2017-11-24T00:18:27.036Z,2.50
2017-11-24T00:20:59.669Z,3.57
2017-11-24T00:23:31.575Z,2.80
2017-11-24T00:26:04.213Z,2.77
2017-11-24T00:28:36.150Z,2.77
2017-11-24T00:31:08.020Z,2.97
2017-11-24T00:33:39.920Z,2.73
2017-11-24T00:36:11.797Z,2.70
2017-11-24T00:38:44.448Z,2.67
2017-11-24T00:41:16.318Z,2.50
2017-11-24T00:43:48.226Z,3.07
2017-11-24T00:46:20.115Z,3.17
2017-11-24T00:48:52.019Z,2.60
2017-11-24T00:51:24.653Z,3.10
2017-11-24T00:53:56.560Z,3.27
2017-11-24T00:56:29.294Z,2.90
2017-11-24T00:59:01.255Z,2.90
2017-11-24T01:01:33.124Z,2.53
2017-11-24T01:04:05.080Z,2.77
2017-11-24T01:06:37.306Z,3.07
2017-11-24T01:09:09.208Z,3.20
2017-11-24T01:11:41.091Z,3.20
2017-11-24T01:14:12.989Z,3.13
2017-11-24T01:16:44.865Z,2.37
2017-11-24T01:19:16.845Z,2.40
2017-11-24T01:21:48.821Z,2.33
2017-11-24T01:24:20.729Z,2.77
2017-11-24T01:26:52.609Z,3.13
2017-11-24T01:29:24.511Z,3.90
2017-11-24T01:31:56.454Z,2.60
2017-11-24T01:34:28.422Z,2.50
2017-11-24T01:37:00.288Z,3.00
2017-11-24T01:39:32.244Z,2.80
2017-11-24T01:42:04.119Z,2.90
2017-11-24T01:44:36.011Z,3.07
2017-11-24T01:47:08.645Z,2.80
2017-11-24T01:49:40.552Z,3.10
2017-11-24T01:52:12.428Z,3.17
2017-11-24T01:54:44.332Z,3.00
2017-11-24T01:57:16.282Z,3.07
2017-11-24T01:59:48.192Z,2.93
2017-11-24T02:02:20.829Z,3.13
2017-11-24T02:04:52.784Z,2.60
2017-11-24T02:07:24.654Z,2.80
2017-11-24T02:09:56.552Z,2.87
2017-11-24T02:12:28.440Z,3.00
2017-11-24T02:15:00.344Z,2.90
2017-11-24T02:17:32.292Z,2.97
2017-11-24T02:20:04.189Z,2.73
2017-11-24T02:22:36.929Z,3.10
2017-11-24T02:25:08.827Z,3.00
2017-11-24T02:27:41.483Z,3.43
2017-11-24T02:30:13.386Z,3.47
2017-11-24T02:32:45.540Z,3.40
2017-11-24T02:35:17.461Z,3.03
2017-11-24T02:37:49.332Z,3.03
2017-11-24T02:40:21.241Z,3.00
2017-11-24T02:42:53.106Z,3.23
2017-11-24T02:45:24.993Z,3.23
2017-11-24T02:47:56.885Z,3.30
2017-11-24T02:50:28.770Z,3.53
2017-11-24T02:53:00.644Z,3.17
2017-11-24T02:55:32.558Z,3.20
2017-11-24T02:58:04.433Z,3.20
2017-11-24T03:00:37.112Z,3.33
2017-11-24T03:03:09.758Z,3.40
2017-11-24T03:05:41.708Z,3.80
2017-11-24T03:08:13.669Z,3.37
2017-11-24T03:10:45.638Z,3.57
2017-11-24T03:13:17.504Z,4.10
2017-11-24T03:15:49.408Z,4.60
2017-11-24T03:18:21.312Z,4.67
2017-11-24T03:20:53.281Z,4.90
2017-11-24T03:23:25.156Z,4.70
2017-11-24T03:25:57.062Z,4.87
2017-11-24T03:28:28.936Z,4.63
2017-11-24T03:31:00.926Z,4.93
2017-11-24T03:33:32.806Z,3.70
2017-11-24T03:36:04.704Z,3.80
2017-11-24T03:38:36.609Z,4.57
2017-11-24T03:41:08.511Z,4.97
2017-11-24T03:43:40.424Z,4.50
2017-11-24T03:46:12.324Z,5.27
2017-11-24T03:48:45.048Z,4.27
2017-11-24T03:51:16.960Z,5.40
2017-11-24T03:53:49.617Z,4.77
2017-11-24T03:56:21.534Z,5.47
2017-11-24T03:58:53.421Z,6.27
2017-11-24T04:01:25.309Z,6.07
2017-11-24T04:03:57.181Z,6.70
2017-11-24T04:06:29.925Z,6.87
2017-11-24T04:09:01.794Z,8.07
2017-11-24T04:11:33.737Z,7.43
2017-11-24T04:14:05.701Z,8.77
2017-11-24T04:16:37.665Z,7.40
2017-11-24T04:19:09.561Z,11.57
2017-11-24T04:21:42.213Z,8.57
2017-11-24T04:24:14.085Z,6.60
2017-11-24T04:26:46.024Z,7.83
2017-11-24T04:29:17.985Z,7.27
2017-11-24T04:31:49.950Z,6.77
2017-11-24T04:34:21.830Z,7.80
2017-11-24T04:36:53.736Z,6.83
2017-11-24T04:39:25.626Z,7.33
2017-11-24T04:41:57.528Z,7.47
2017-11-24T04:44:30.174Z,7.60
2017-11-24T04:47:02.079Z,7.67
2017-11-24T04:49:34.713Z,9.73
2017-11-24T04:52:06.612Z,7.60
2017-11-24T04:54:39.250Z,8.90
2017-11-24T04:57:11.132Z,8.47
2017-11-24T04:59:43.006Z,8.67
2017-11-24T05:02:15.684Z,9.40
2017-11-24T05:04:48.325Z,9.07
2017-11-24T05:07:20.225Z,8.73
2017-11-24T05:09:52.865Z,9.07
2017-11-24T05:12:24.771Z,12.23
2017-11-24T05:14:57.411Z,9.50
2017-11-24T05:17:29.316Z,10.77
2017-11-24T05:20:01.956Z,11.37
2017-11-24T05:22:33.862Z,11.30
2017-11-24T05:25:05.746Z,11.40
2017-11-24T05:27:37.645Z,11.73
2017-11-24T05:30:09.512Z,12.77
2017-11-24T05:32:42.193Z,10.47
2017-11-24T05:35:15.105Z,8.83
2017-11-24T05:37:46.989Z,9.77
2017-11-24T05:40:18.870Z,9.47
2017-11-24T05:42:50.778Z,11.13
2017-11-24T05:45:22.648Z,10.63
2017-11-24T05:47:54.560Z,12.03
2017-11-24T05:50:27.226Z,13.37
2017-11-24T05:52:59.129Z,14.03
2017-11-24T05:55:31.760Z,14.93
2017-11-24T05:58:03.660Z,17.27
2017-11-24T06:00:36.292Z,14.57
2017-11-24T06:03:08.196Z,13.00
2017-11-24T06:05:40.829Z,13.57
2017-11-24T06:08:12.725Z,7.73
2017-11-24T06:10:44.601Z,7.10
2017-11-24T06:13:17.270Z,6.37
2017-11-24T06:15:49.892Z,4.77
2017-11-24T06:18:21.818Z,4.10
2017-11-24T06:20:54.444Z,3.70
2017-11-24T06:23:26.352Z,2.63
2017-11-24T06:25:58.987Z,3.30
2017-11-24T06:28:30.894Z,3.40
2017-11-24T06:31:03.521Z,3.07
2017-11-24T06:33:35.406Z,3.10
2017-11-24T06:36:07.274Z,2.97
2017-11-24T06:38:39.169Z,3.47
2017-11-24T06:41:11.058Z,3.57
2017-11-24T06:43:42.987Z,3.80
2017-11-24T06:46:14.883Z,3.40
2017-11-24T06:48:46.773Z,3.50
2017-11-24T06:51:18.709Z,4.70
2017-11-24T06:53:50.680Z,4.23
2017-11-24T06:56:23.334Z,5.50
2017-11-24T06:58:55.236Z,5.00
2017-11-24T07:01:27.126Z,5.63
2017-11-24T07:03:59.790Z,6.10
2017-11-24T07:06:32.457Z,5.70
2017-11-24T07:09:04.347Z,6.53
2017-11-24T07:11:36.221Z,5.70
2017-11-24T07:14:08.139Z,6.23
2017-11-24T07:16:40.010Z,7.03
2017-11-24T07:19:12.705Z,6.63
2017-11-24T07:21:44.577Z,6.73
2017-11-24T07:24:16.468Z,6.43
2017-11-24T07:26:48.332Z,7.10
2017-11-24T07:29:20.288Z,6.40
2017-11-24T07:31:52.158Z,6.13
2017-11-24T07:34:24.073Z,5.77
2017-11-24T07:36:55.952Z,6.77
2017-11-24T07:39:27.916Z,10.97
2017-11-24T07:41:59.780Z,9.03
2017-11-24T07:44:31.657Z,8.93
2017-11-24T07:47:03.526Z,8.37
2017-11-24T07:49:35.413Z,7.83
2017-11-24T07:52:08.057Z,8.10
2017-11-24T07:54:39.952Z,8.07
2017-11-24T07:57:12.584Z,8.67
2017-11-24T07:59:44.544Z,8.57
2017-11-24T08:02:16.409Z,8.27
2017-11-24T08:04:48.316Z,10.23
2017-11-24T08:07:20.957Z,8.60
2017-11-24T08:09:52.848Z,11.00
2017-11-24T08:12:25.491Z,13.73
2017-11-24T08:14:57.375Z,11.47
2017-11-24T08:17:30.014Z,10.03
2017-11-24T08:20:01.931Z,15.67
2017-11-24T08:22:34.565Z,13.93
2017-11-24T08:25:06.476Z,11.13
2017-11-24T08:27:39.109Z,11.37
2017-11-24T08:30:11.028Z,14.23
2017-11-24T08:32:43.200Z,16.40
2017-11-24T08:35:15.089Z,15.47
2017-11-24T08:37:46.960Z,15.93
2017-11-24T08:40:18.874Z,15.60
2017-11-24T08:42:50.745Z,16.77
2017-11-24T08:45:22.645Z,16.33
2017-11-24T08:47:54.513Z,12.87
2017-11-24T08:50:26.422Z,12.83
2017-11-24T08:52:58.297Z,10.50
2017-11-24T08:55:30.185Z,8.73
2017-11-24T08:58:02.848Z,9.07
2017-11-24T09:00:34.754Z,8.40
2017-11-24T09:03:07.384Z,8.60
2017-11-24T09:05:40.052Z,9.23
2017-11-24T09:08:11.925Z,9.77
2017-11-24T09:10:43.816Z,8.43
2017-11-24T09:13:16.457Z,9.10
2017-11-24T09:15:48.349Z,8.60
2017-11-24T09:18:20.216Z,7.10
2017-11-24T09:20:52.879Z,8.10
2017-11-24T09:23:24.749Z,7.63
2017-11-24T09:25:56.644Z,7.37
2017-11-24T09:28:28.508Z,7.37
2017-11-24T09:31:00.389Z,7.73
2017-11-24T09:33:32.258Z,8.37
2017-11-24T09:36:04.136Z,7.10
2017-11-24T09:38:36.029Z,6.50
2017-11-24T09:41:08.697Z,5.63
2017-11-24T09:43:41.337Z,6.60
2017-11-24T09:46:13.238Z,6.40
2017-11-24T09:48:45.868Z,7.43
2017-11-24T09:51:17.768Z,6.80
2017-11-24T09:53:50.409Z,7.10
2017-11-24T09:56:23.097Z,7.13
2017-11-24T09:58:54.975Z,6.20
2017-11-24T10:01:26.885Z,6.55
2017-11-24T10:03:58.762Z,6.77
2017-11-24T10:06:30.645Z,6.03
2017-11-24T10:09:02.521Z,5.93
2017-11-24T10:11:35.434Z,6.57
2017-11-24T10:14:07.309Z,6.27
2017-11-24T10:16:39.196Z,6.37
2017-11-24T10:19:11.102Z,7.07
2017-11-24T10:21:43.773Z,7.37
2017-11-24T10:24:16.414Z,6.77
2017-11-24T10:26:48.304Z,7.10
2017-11-24T10:29:20.946Z,6.97
2017-11-24T10:31:53.617Z,7.03
2017-11-24T10:34:25.496Z,6.33
2017-11-24T10:36:57.402Z,8.23
2017-11-24T10:39:30.037Z,8.67
2017-11-24T10:42:01.968Z,7.10
2017-11-24T10:44:33.845Z,6.87
2017-11-24T10:47:06.508Z,7.23
2017-11-24T10:49:38.381Z,8.43
2017-11-24T10:52:10.297Z,7.67
2017-11-24T10:54:42.933Z,8.60
2017-11-24T10:57:14.833Z,8.10
2017-11-24T10:59:47.480Z,8.50
2017-11-24T11:02:19.385Z,8.33
2017-11-24T11:04:51.253Z,7.77
2017-11-24T11:07:23.147Z,8.10
2017-11-24T11:09:55.017Z,7.27
2017-11-24T11:12:26.917Z,6.93
2017-11-24T11:14:59.549Z,8.03
2017-11-24T11:17:31.581Z,9.13
2017-11-24T11:20:03.456Z,7.93
2017-11-24T11:22:35.339Z,8.77
2017-11-24T11:25:07.209Z,8.10
2017-11-24T11:27:39.113Z,8.40
2017-11-24T11:30:10.976Z,8.07
2017-11-24T11:32:42.881Z,8.03
2017-11-24T11:35:14.760Z,8.33
2017-11-24T11:37:46.661Z,6.83
2017-11-24T11:40:18.529Z,7.33
2017-11-24T11:42:50.438Z,6.30
2017-11-24T11:45:22.318Z,6.97
2017-11-24T11:47:55.055Z,6.30
2017-11-24T11:50:26.940Z,7.00
2017-11-24T11:52:58.837Z,6.83
2017-11-24T11:55:30.714Z,6.50
2017-11-24T11:58:02.606Z,6.60
2017-11-24T12:00:34.477Z,6.20
2017-11-24T12:03:06.481Z,6.47
2017-11-24T12:05:38.348Z,6.37
2017-11-24T12:08:10.231Z,6.40
2017-11-24T12:10:42.105Z,5.60
2017-11-24T12:13:14.001Z,5.13
2017-11-24T12:15:46.638Z,5.30
2017-11-24T12:18:18.535Z,5.10
2017-11-24T12:20:52.044Z,4.43
2017-11-24T12:23:24.688Z,6.93
2017-11-24T12:25:56.899Z,4.97
2017-11-24T12:28:28.796Z,6.23
2017-11-24T12:31:00.664Z,6.30
2017-11-24T12:33:32.557Z,6.30
2017-11-24T12:36:05.205Z,6.37
2017-11-24T12:38:37.100Z,6.30
2017-11-24T12:41:09.741Z,5.60
2017-11-24T12:43:41.718Z,6.47
2017-11-24T12:46:13.596Z,6.53
2017-11-24T12:48:46.248Z,6.70
2017-11-24T12:51:18.119Z,7.00
2017-11-24T12:53:50.014Z,7.80
2017-11-24T12:56:21.877Z,7.97
2017-11-24T12:58:53.791Z,8.10
2017-11-24T13:01:25.689Z,8.67
2017-11-24T13:03:57.618Z,9.03
2017-11-24T13:06:29.502Z,9.37
2017-11-24T13:09:01.608Z,9.67
2017-11-24T13:11:33.493Z,9.37
2017-11-24T13:14:05.407Z,9.67
2017-11-24T13:16:37.269Z,9.27
2017-11-24T13:19:09.167Z,9.70
2017-11-24T13:21:41.052Z,9.43
2017-11-24T13:24:12.961Z,10.57
2017-11-24T13:26:44.830Z,10.90
2017-11-24T13:29:16.716Z,10.93
2017-11-24T13:31:48.599Z,11.07
2017-11-24T13:34:21.263Z,10.43
2017-11-24T13:36:53.137Z,10.87
2017-11-24T13:39:25.808Z,12.10
2017-11-24T13:41:57.689Z,11.57
2017-11-24T13:44:30.354Z,12.43
2017-11-24T13:47:02.984Z,13.30
2017-11-24T13:49:34.886Z,11.93
2017-11-24T13:52:06.769Z,12.87
2017-11-24T13:54:39.441Z,12.47
2017-11-24T13:57:12.076Z,13.03
2017-11-24T13:59:43.989Z,13.13
2017-11-24T14:02:15.858Z,14.43
2017-11-24T14:04:47.756Z,12.20
2017-11-24T14:07:19.635Z,13.33
2017-11-24T14:09:51.516Z,12.07
2017-11-24T14:12:23.398Z,12.30
2017-11-24T14:14:55.293Z,13.27
2017-11-24T14:17:27.178Z,13.50
2017-11-24T14:19:59.070Z,13.93
2017-11-24T14:22:30.946Z,14.60
2017-11-24T14:25:02.829Z,14.17
2017-11-24T14:27:34.707Z,14.30
2017-11-24T14:30:06.605Z,12.73
2017-11-24T14:32:38.496Z,13.07
2017-11-24T14:35:10.400Z,13.33
2017-11-24T14:37:42.273Z,13.73
2017-11-24T14:40:14.945Z,13.20
2017-11-24T14:42:47.581Z,11.67
2017-11-24T14:45:19.492Z,13.63
2017-11-24T14:47:52.121Z,13.37
2017-11-24T14:50:24.024Z,13.97
2017-11-24T14:52:56.662Z,13.30
2017-11-24T14:55:28.568Z,13.77
2017-11-24T14:58:01.205Z,13.90
2017-11-24T15:00:33.105Z,13.73
2017-11-24T15:03:05.750Z,14.67
2017-11-24T15:05:37.658Z,14.13
2017-11-24T15:08:10.295Z,13.03
2017-11-24T15:10:42.190Z,13.97
2017-11-24T15:13:14.828Z,13.20
2017-11-24T15:15:46.729Z,13.13
2017-11-24T15:18:19.365Z,12.90
2017-11-24T15:20:51.260Z,12.93
2017-11-24T15:23:23.897Z,14.37
2017-11-24T15:25:55.828Z,12.80
2017-11-24T15:28:27.711Z,12.30
2017-11-24T15:30:59.606Z,12.23
2017-11-24T15:33:31.485Z,12.80
2017-11-24T15:36:04.143Z,13.03
2017-11-24T15:38:36.793Z,11.83
2017-11-24T15:41:08.690Z,13.80
2017-11-24T15:43:40.565Z,11.83
2017-11-24T15:46:13.243Z,10.30
2017-11-24T15:48:45.885Z,12.10
2017-11-24T15:51:17.797Z,10.93
2017-11-24T15:53:49.679Z,10.70
2017-11-24T15:56:21.588Z,10.93
2017-11-24T15:58:53.490Z,11.57
2017-11-24T16:01:26.145Z,10.93
2017-11-24T16:03:58.036Z,12.23
2017-11-24T16:06:29.972Z,13.37
2017-11-24T16:09:01.870Z,12.80
2017-11-24T16:11:33.811Z,12.97
2017-11-24T16:14:05.738Z,11.33
2017-11-24T16:16:38.396Z,11.67
2017-11-24T16:19:10.270Z,11.83
2017-11-24T16:21:42.173Z,12.07
2017-11-24T16:24:14.066Z,12.80
2017-11-24T16:26:45.960Z,12.33
2017-11-24T16:29:18.595Z,13.37
2017-11-24T16:31:50.507Z,13.60
2017-11-24T16:34:23.182Z,12.27
2017-11-24T16:36:55.852Z,12.53
2017-11-24T16:39:27.737Z,13.57
2017-11-24T16:41:59.633Z,10.87
2017-11-24T16:44:31.537Z,13.90
2017-11-24T16:47:04.173Z,13.03
2017-11-24T16:49:36.062Z,13.73
2017-11-24T16:52:07.920Z,16.27
2017-11-24T16:54:39.825Z,15.17
2017-11-24T16:57:11.699Z,15.27
2017-11-24T16:59:43.597Z,15.13
2017-11-24T17:02:15.803Z,14.53
2017-11-24T17:04:47.716Z,16.77
2017-11-24T17:07:19.579Z,13.33
2017-11-24T17:09:51.477Z,15.20
2017-11-24T17:12:24.108Z,16.47
2017-11-24T17:14:56.008Z,14.93
2017-11-24T17:17:28.649Z,17.13
2017-11-24T17:20:00.549Z,16.23
2017-11-24T17:22:33.202Z,15.10
2017-11-24T17:25:05.101Z,16.87
2017-11-24T17:27:36.977Z,15.17
2017-11-24T17:30:08.874Z,15.37
2017-11-24T17:32:40.749Z,19.43
2017-11-24T17:35:12.645Z,16.23
2017-11-24T17:37:44.524Z,15.43
2017-11-24T17:40:16.409Z,16.17
2017-11-24T17:42:48.279Z,16.47
2017-11-24T17:45:20.202Z,16.73
2017-11-24T17:47:52.072Z,14.40
2017-11-24T17:50:23.972Z,14.93
2017-11-24T17:52:55.845Z,13.50
2017-11-24T17:55:28.506Z,13.47
2017-11-24T17:58:00.385Z,14.27
2017-11-24T18:00:33.045Z,14.27
2017-11-24T18:03:04.965Z,16.73
2017-11-24T18:05:36.875Z,16.73
2017-11-24T18:08:08.747Z,15.10
2017-11-24T18:10:41.410Z,14.27
2017-11-24T18:13:13.296Z,15.37
2017-11-24T18:15:45.200Z,13.07
2017-11-24T18:18:17.072Z,17.57
2017-11-24T18:20:48.969Z,18.47
2017-11-24T18:23:21.603Z,16.43
2017-11-24T18:25:53.511Z,17.63
2017-11-24T18:28:26.136Z,17.63
2017-11-24T18:30:58.055Z,18.03
2017-11-24T18:33:29.924Z,16.73
2017-11-24T18:36:01.826Z,16.67
2017-11-24T18:38:33.705Z,14.80
2017-11-24T18:41:05.646Z,15.83
2017-11-24T18:43:37.508Z,15.80
2017-11-24T18:46:09.413Z,16.47
2017-11-24T18:48:41.281Z,16.47
2017-11-24T18:51:13.193Z,15.73
2017-11-24T18:53:45.070Z,16.30
2017-11-24T18:56:16.979Z,17.27
2017-11-24T18:58:48.850Z,17.43
2017-11-24T19:01:20.768Z,18.33
2017-11-24T19:03:52.649Z,18.03
2017-11-24T19:06:24.544Z,18.40
2017-11-24T19:08:56.438Z,15.10
2017-11-24T19:11:29.195Z,17.03
2017-11-24T19:14:01.071Z,17.43
2017-11-24T19:16:32.968Z,17.67
2017-11-24T19:19:04.838Z,17.87
2017-11-24T19:21:36.767Z,15.43
2017-11-24T19:24:09.400Z,17.07
2017-11-24T19:26:41.288Z,16.47
2017-11-24T19:29:13.929Z,16.07
2017-11-24T19:31:45.832Z,15.93
2017-11-24T19:34:18.489Z,15.43
2017-11-24T19:36:50.421Z,17.03
2017-11-24T19:39:22.301Z,15.80
2017-11-24T19:41:54.229Z,17.53
2017-11-24T19:44:26.116Z,13.97
2017-11-24T19:46:58.091Z,15.63
2017-11-24T19:49:29.996Z,14.37
2017-11-24T19:52:02.883Z,13.57
2017-11-24T19:54:34.753Z,17.03
2017-11-24T19:57:06.652Z,15.13
2017-11-24T19:59:38.534Z,14.60
2017-11-24T20:02:10.445Z,15.43
2017-11-24T20:04:42.319Z,15.63
2017-11-24T20:07:14.225Z,14.37
2017-11-24T20:09:46.867Z,14.77
2017-11-24T20:12:18.769Z,17.23
2017-11-24T20:14:51.414Z,17.80
2017-11-24T20:17:23.314Z,21.03
2017-11-24T20:19:55.956Z,18.20
2017-11-24T20:22:27.860Z,17.90
2017-11-24T20:24:59.810Z,20.13
2017-11-24T20:27:32.469Z,20.00
2017-11-24T20:30:04.341Z,18.13
2017-11-24T20:32:37.009Z,19.70
2017-11-24T20:35:08.890Z,20.50
2017-11-24T20:37:41.549Z,16.83
2017-11-24T20:40:13.449Z,15.13
2017-11-24T20:42:45.341Z,18.27
2017-11-24T20:45:17.224Z,20.97
2017-11-24T20:47:49.909Z,20.60
2017-11-24T20:50:22.550Z,22.27
2017-11-24T20:52:54.453Z,20.73
2017-11-24T20:55:27.104Z,18.23
2017-11-24T20:57:59.013Z,21.97
2017-11-24T21:00:31.655Z,22.23
2017-11-24T21:03:03.559Z,20.20
2017-11-24T21:05:35.437Z,20.30
2017-11-24T21:08:07.347Z,19.93
2017-11-24T21:10:39.984Z,18.67
2017-11-24T21:13:11.889Z,17.87
2017-11-24T21:15:44.533Z,20.40
2017-11-24T21:18:16.418Z,20.13
2017-11-24T21:20:48.293Z,20.53
2017-11-24T21:23:20.947Z,18.57
2017-11-24T21:25:52.829Z,18.00
2017-11-24T21:28:25.477Z,17.30
2017-11-24T21:30:57.349Z,19.87
2017-11-24T21:33:29.258Z,17.63
2017-11-24T21:36:01.148Z,16.87
2017-11-24T21:38:33.051Z,16.73
2017-11-24T21:41:05.681Z,17.00
2017-11-24T21:43:37.589Z,18.10
2017-11-24T21:46:10.225Z,18.87
2017-11-24T21:48:42.131Z,20.30
2017-11-24T21:51:14.777Z,18.00
2017-11-24T21:53:46.693Z,17.40
2017-11-24T21:56:18.575Z,20.30
2017-11-24T21:58:50.461Z,22.83
2017-11-24T22:01:22.333Z,22.13
2017-11-24T22:03:55.014Z,20.13
2017-11-24T22:06:26.885Z,20.67
2017-11-24T22:08:58.784Z,20.90
2017-11-24T22:11:30.669Z,24.10
2017-11-24T22:14:02.568Z,20.97
2017-11-24T22:16:35.212Z,19.10
2017-11-24T22:19:07.120Z,22.20
2017-11-24T22:21:38.989Z,21.30
2017-11-24T22:24:10.901Z,24.23
2017-11-24T22:26:42.773Z,21.33
2017-11-24T22:29:15.444Z,21.73
2017-11-24T22:31:47.313Z,20.73
2017-11-24T22:34:19.965Z,19.43
2017-11-24T22:36:51.841Z,19.40
2017-11-24T22:39:23.766Z,20.60
2017-11-24T22:41:55.657Z,19.27
2017-11-24T22:44:27.568Z,19.53
2017-11-24T22:46:59.440Z,18.73
2017-11-24T22:49:31.330Z,18.93
2017-11-24T22:52:03.973Z,18.20
2017-11-24T22:54:35.875Z,19.20
2017-11-24T22:57:07.765Z,19.47
2017-11-24T22:59:40.438Z,17.43
2017-11-24T23:02:13.072Z,18.57
2017-11-24T23:04:44.981Z,22.90
2017-11-24T23:07:17.628Z,23.80
2017-11-24T23:09:49.541Z,23.67
2017-11-24T23:12:21.427Z,24.43
2017-11-24T23:14:53.330Z,23.53
2017-11-24T23:17:25.963Z,25.13
2017-11-24T23:19:57.867Z,24.90
2017-11-24T23:22:29.750Z,27.03
2017-11-24T23:25:02.513Z,29.70
2017-11-24T23:27:35.156Z,26.20
2017-11-24T23:30:07.075Z,25.63
